Thunder radar more information blitzortung!


avis per Pluja more information rain snow radar


Visita la nostra xarxa de llocs de meteo:

Template documentation
and downloads

And another site



Rain From: 18-11-2018 11:00 Until: 20:59 warning for: Rain Level: Yellow info button

Pagina Historial Weather Underground text

Diari Resum January 23, 2018 Unitats:  Tant    Imperial   Mètric
« Previous Dia
SegĂźent Dia »
Diari Setmana Mensual Anual Personalitzada
  Maxima: Minima: Media:
Temperatura: TemperatureF °F /  -17.8 °C 42.8 °F /  6 °C 51.7 °F /  10.9 °C
Punt de rosada: DewpointF °F /  -17.8 °C 37.1 °F /  2.8 °C 40.9 °F /  4.9 °C
Humitat: Humidity % 55 % 67 %
Wind Speed: WindSpeedMPH mph /  0 km/h - 2.5 mph /  4 km/h
RĂ fegues de vent: WindSpeedGustMPH mph /  0 km/h - -
Vent:- - SSE
Pression baro: PressureIn in /  0 hPa 30.24 in /  1023.9 hPa -
Precipitacions: 0.00 in /  0 mm    
Historical Graphs
 
 
Dades de taula per January 23, 2018
Temps Temperatura Punt de rosada Pression baro Vent Wind Speed RĂ fegues de vent Humitat Rainfall Rate (Hourly)
TemperatureF °F /  -17.8 °C DewpointF °F /  -17.8 °C PressureIn in /  0 hPa Calm     Humidity % HourlyPrecipIn in /  0 mm
00:00 53.4 °F /  11.9 °C 40.2 °F /  4.6 °C 30.30 in /  1026 hPa Calm   3.0 mph /  4.8 km/h 61 % 0.00 in /  0 mm
00:05 53.1 °F /  11.7 °C 40.0 °F /  4.4 °C 30.30 in /  1026 hPa NNE 2.0 mph /  3.2 km/h 3.0 mph /  4.8 km/h 61 % 0.00 in /  0 mm
00:10 52.9 °F /  11.6 °C 39.8 °F /  4.3 °C 30.30 in /  1026 hPa Calm     61 % 0.00 in /  0 mm
00:15 52.7 °F /  11.5 °C 39.6 °F /  4.2 °C 30.30 in /  1026 hPa NE 1.2 mph /  1.9 km/h 1.2 mph /  1.9 km/h 61 % 0.00 in /  0 mm
00:20 52.3 °F /  11.3 °C 39.3 °F /  4.1 °C 30.30 in /  1026 hPa WNW 1.6 mph /  2.6 km/h 1.6 mph /  2.6 km/h 61 % 0.00 in /  0 mm
00:25 52.2 °F /  11.2 °C 39.5 °F /  4.2 °C 30.30 in /  1026 hPa Calm     62 % 0.00 in /  0 mm
00:30 52.0 °F /  11.1 °C 39.4 °F /  4.1 °C 30.30 in /  1026 hPa WNW 2.3 mph /  3.7 km/h 2.3 mph /  3.7 km/h 62 % 0.00 in /  0 mm
00:35 52.0 °F /  11.1 °C 39.4 °F /  4.1 °C 30.27 in /  1024.9 hPa NW 1.2 mph /  1.9 km/h 1.2 mph /  1.9 km/h 62 % 0.00 in /  0 mm
00:40 52.2 °F /  11.2 °C 39.9 °F /  4.4 °C 30.27 in /  1024.9 hPa NE 2.3 mph /  3.7 km/h 2.3 mph /  3.7 km/h 63 % 0.00 in /  0 mm
00:45 52.3 °F /  11.3 °C 40.1 °F /  4.5 °C 30.27 in /  1024.9 hPa NNE 3.5 mph /  5.6 km/h 3.5 mph /  5.6 km/h 63 % 0.00 in /  0 mm
00:50 52.0 °F /  11.1 °C 39.8 °F /  4.3 °C 30.27 in /  1024.9 hPa NE 1.2 mph /  1.9 km/h 1.2 mph /  1.9 km/h 63 % 0.00 in /  0 mm
00:55 51.8 °F /  11 °C 39.6 °F /  4.2 °C 30.27 in /  1024.9 hPa Calm     63 % 0.00 in /  0 mm
01:00 51.6 °F /  10.9 °C 39.4 °F /  4.1 °C 30.27 in /  1024.9 hPa WNW 2.3 mph /  3.7 km/h 2.3 mph /  3.7 km/h 63 % 0.00 in /  0 mm
01:05 51.6 °F /  10.9 °C 39.8 °F /  4.3 °C 30.27 in /  1024.9 hPa NNE 2.3 mph /  3.7 km/h 2.3 mph /  3.7 km/h 64 % 0.00 in /  0 mm
01:10 51.4 °F /  10.8 °C 39.7 °F /  4.3 °C 30.27 in /  1024.9 hPa WNW 2.0 mph /  3.2 km/h 2.0 mph /  3.2 km/h 64 % 0.00 in /  0 mm
01:15 51.3 °F /  10.7 °C 39.5 °F /  4.2 °C 30.27 in /  1024.9 hPa NW 1.2 mph /  1.9 km/h   64 % 0.00 in /  0 mm
01:20 51.3 °F /  10.7 °C 39.5 °F /  4.2 °C 30.27 in /  1024.9 hPa WNW 1.4 mph /  2.3 km/h 1.4 mph /  2.3 km/h 64 % 0.00 in /  0 mm
01:25 51.1 °F /  10.6 °C 39.3 °F /  4.1 °C 30.27 in /  1024.9 hPa NNE 1.2 mph /  1.9 km/h   64 % 0.00 in /  0 mm
01:30 50.9 °F /  10.5 °C 39.5 °F /  4.2 °C 30.27 in /  1024.9 hPa ENE 1.2 mph /  1.9 km/h 1.2 mph /  1.9 km/h 65 % 0.00 in /  0 mm
01:35 50.9 °F /  10.5 °C 39.5 °F /  4.2 °C 30.27 in /  1024.9 hPa NNE 1.2 mph /  1.9 km/h   65 % 0.00 in /  0 mm
01:40 50.7 °F /  10.4 °C 39.4 °F /  4.1 °C 30.27 in /  1024.9 hPa NNE 1.2 mph /  1.9 km/h   65 % 0.00 in /  0 mm
01:50 50.5 °F /  10.3 °C 39.2 °F /  4 °C 30.27 in /  1024.9 hPa West 3.5 mph /  5.6 km/h 3.5 mph /  5.6 km/h 65 % 0.00 in /  0 mm
01:56 50.4 °F /  10.2 °C 39.0 °F /  3.9 °C 30.27 in /  1024.9 hPa NNE 2.4 mph /  3.9 km/h 2.4 mph /  3.9 km/h 65 % 0.00 in /  0 mm
02:06 50.4 °F /  10.2 °C 39.0 °F /  3.9 °C 30.30 in /  1026 hPa WSW 2.4 mph /  3.9 km/h 2.4 mph /  3.9 km/h 65 % 0.00 in /  0 mm
02:11 50.4 °F /  10.2 °C 39.0 °F /  3.9 °C 30.30 in /  1026 hPa WSW 2.3 mph /  3.7 km/h 2.3 mph /  3.7 km/h 65 % 0.00 in /  0 mm
02:21 50.4 °F /  10.2 °C 39.0 °F /  3.9 °C 30.24 in /  1023.9 hPa WSW 2.3 mph /  3.7 km/h 2.3 mph /  3.7 km/h 65 % 0.00 in /  0 mm
02:31 51.1 °F /  10.6 °C 40.1 °F /  4.5 °C 30.24 in /  1023.9 hPa WNW 2.3 mph /  3.7 km/h 2.3 mph /  3.7 km/h 66 % 0.00 in /  0 mm
02:36 51.6 °F /  10.9 °C 40.6 °F /  4.8 °C 30.24 in /  1023.9 hPa WSW 4.6 mph /  7.4 km/h 4.6 mph /  7.4 km/h 66 % 0.00 in /  0 mm
02:41 52.0 °F /  11.1 °C 41.0 °F /  5 °C 30.24 in /  1023.9 hPa West 3.5 mph /  5.6 km/h 3.5 mph /  5.6 km/h 66 % 0.00 in /  0 mm
02:46 52.2 °F /  11.2 °C 41.5 °F /  5.3 °C 30.27 in /  1024.9 hPa ENE 3.5 mph /  5.6 km/h 3.5 mph /  5.6 km/h 67 % 0.00 in /  0 mm
02:51 52.2 °F /  11.2 °C 41.5 °F /  5.3 °C 30.27 in /  1024.9 hPa ENE 2.9 mph /  4.7 km/h 2.9 mph /  4.7 km/h 67 % 0.00 in /  0 mm
03:01 49.8 °F /  9.9 °C 38.9 °F /  3.8 °C 30.27 in /  1024.9 hPa West 2.3 mph /  3.7 km/h 2.3 mph /  3.7 km/h 66 % 0.00 in /  0 mm
03:06 49.3 °F /  9.6 °C 38.4 °F /  3.6 °C 30.27 in /  1024.9 hPa West 2.4 mph /  3.9 km/h 2.4 mph /  3.9 km/h 66 % 0.00 in /  0 mm
03:11 49.1 °F /  9.5 °C 38.6 °F /  3.7 °C 30.27 in /  1024.9 hPa WSW 2.3 mph /  3.7 km/h   67 % 0.00 in /  0 mm
03:16 49.3 °F /  9.6 °C 39.2 °F /  4 °C 30.30 in /  1026 hPa NE 1.2 mph /  1.9 km/h   68 % 0.00 in /  0 mm
03:21 49.5 °F /  9.7 °C 39.3 °F /  4.1 °C 30.30 in /  1026 hPa NNE 2.3 mph /  3.7 km/h 2.3 mph /  3.7 km/h 68 % 0.00 in /  0 mm
03:31 48.9 °F /  9.4 °C 38.8 °F /  3.8 °C 30.30 in /  1026 hPa ENE 2.3 mph /  3.7 km/h 2.3 mph /  3.7 km/h 68 % 0.00 in /  0 mm
03:37 48.9 °F /  9.4 °C 39.2 °F /  4 °C 30.30 in /  1026 hPa WSW 1.2 mph /  1.9 km/h 1.2 mph /  1.9 km/h 69 % 0.00 in /  0 mm
03:47 48.4 °F /  9.1 °C 38.7 °F /  3.7 °C 30.30 in /  1026 hPa WSW 1.4 mph /  2.3 km/h   69 % 0.00 in /  0 mm
03:52 48.4 °F /  9.1 °C 38.3 °F /  3.5 °C 30.30 in /  1026 hPa WSW 2.4 mph /  3.9 km/h 2.4 mph /  3.9 km/h 68 % 0.00 in /  0 mm
03:57 48.2 °F /  9 °C 38.5 °F /  3.6 °C 30.30 in /  1026 hPa Calm     69 % 0.00 in /  0 mm
04:02 48.2 °F /  9 °C 38.9 °F /  3.8 °C 30.30 in /  1026 hPa Calm     70 % 0.00 in /  0 mm
04:07 48.2 °F /  9 °C 38.5 °F /  3.6 °C 30.30 in /  1026 hPa WSW 2.3 mph /  3.7 km/h 2.4 mph /  3.9 km/h 69 % 0.00 in /  0 mm
04:12 48.0 °F /  8.9 °C 38.3 °F /  3.5 °C 30.30 in /  1026 hPa WSW 2.0 mph /  3.2 km/h 2.0 mph /  3.2 km/h 69 % 0.00 in /  0 mm
04:17 47.8 °F /  8.8 °C 38.2 °F /  3.4 °C 30.30 in /  1026 hPa WSW 1.2 mph /  1.9 km/h   69 % 0.00 in /  0 mm
04:22 47.5 °F /  8.6 °C 37.8 °F /  3.2 °C 30.30 in /  1026 hPa West 2.4 mph /  3.9 km/h 2.4 mph /  3.9 km/h 69 % 0.00 in /  0 mm
04:27 47.3 °F /  8.5 °C 37.6 °F /  3.1 °C 30.30 in /  1026 hPa WNW 1.4 mph /  2.3 km/h 1.4 mph /  2.3 km/h 69 % 0.00 in /  0 mm
04:32 47.5 °F /  8.6 °C 37.8 °F /  3.2 °C 30.30 in /  1026 hPa WNW 2.3 mph /  3.7 km/h 2.3 mph /  3.7 km/h 69 % 0.00 in /  0 mm
04:37 47.7 °F /  8.7 °C 38.4 °F /  3.6 °C 30.30 in /  1026 hPa NE 1.2 mph /  1.9 km/h   70 % 0.00 in /  0 mm
04:42 47.5 °F /  8.6 °C 38.5 °F /  3.6 °C 30.30 in /  1026 hPa NNW 1.2 mph /  1.9 km/h   71 % 0.00 in /  0 mm
04:47 47.8 °F /  8.8 °C 38.5 °F /  3.6 °C 30.30 in /  1026 hPa NNW 2.3 mph /  3.7 km/h 2.3 mph /  3.7 km/h 70 % 0.00 in /  0 mm
04:57 47.5 °F /  8.6 °C 38.5 °F /  3.6 °C 30.30 in /  1026 hPa NNE 3.5 mph /  5.6 km/h 3.5 mph /  5.6 km/h 71 % 0.00 in /  0 mm
05:07 47.3 °F /  8.5 °C 38.7 °F /  3.7 °C 30.27 in /  1024.9 hPa Calm     72 % 0.00 in /  0 mm
05:12 47.1 °F /  8.4 °C 38.2 °F /  3.4 °C 30.27 in /  1024.9 hPa Calm     71 % 0.00 in /  0 mm
05:17 46.9 °F /  8.3 °C 38.0 °F /  3.3 °C 30.30 in /  1026 hPa WNW 1.6 mph /  2.6 km/h 1.6 mph /  2.6 km/h 71 % 0.00 in /  0 mm
05:22 47.1 °F /  8.4 °C 38.2 °F /  3.4 °C 30.30 in /  1026 hPa NW 2.3 mph /  3.7 km/h   71 % 0.00 in /  0 mm
05:27 46.9 °F /  8.3 °C 38.0 °F /  3.3 °C 30.30 in /  1026 hPa WNW 1.2 mph /  1.9 km/h 1.2 mph /  1.9 km/h 71 % 0.00 in /  0 mm
05:32 46.9 °F /  8.3 °C 38.0 °F /  3.3 °C 30.30 in /  1026 hPa WNW 2.0 mph /  3.2 km/h 2.0 mph /  3.2 km/h 71 % 0.00 in /  0 mm
05:37 47.1 °F /  8.4 °C 38.6 °F /  3.7 °C 30.30 in /  1026 hPa North 1.2 mph /  1.9 km/h 1.2 mph /  1.9 km/h 72 % 0.00 in /  0 mm
05:47 47.1 °F /  8.4 °C 38.6 °F /  3.7 °C 30.30 in /  1026 hPa West 1.4 mph /  2.3 km/h 1.4 mph /  2.3 km/h 72 % 0.00 in /  0 mm
05:52 46.9 °F /  8.3 °C 38.4 °F /  3.6 °C 30.30 in /  1026 hPa NNE 2.3 mph /  3.7 km/h 2.3 mph /  3.7 km/h 72 % 0.00 in /  0 mm
05:57 47.3 °F /  8.5 °C 39.1 °F /  3.9 °C 30.30 in /  1026 hPa NNE 4.6 mph /  7.4 km/h 4.6 mph /  7.4 km/h 73 % 0.00 in /  0 mm
06:02 47.1 °F /  8.4 °C 38.6 °F /  3.7 °C 30.27 in /  1024.9 hPa NNE 2.0 mph /  3.2 km/h   72 % 0.00 in /  0 mm
06:07 47.1 °F /  8.4 °C 38.6 °F /  3.7 °C 30.27 in /  1024.9 hPa ENE 4.6 mph /  7.4 km/h 4.6 mph /  7.4 km/h 72 % 0.00 in /  0 mm
06:12 46.9 °F /  8.3 °C 38.7 °F /  3.7 °C 30.27 in /  1024.9 hPa ENE 2.3 mph /  3.7 km/h 2.3 mph /  3.7 km/h 73 % 0.00 in /  0 mm
06:17 46.9 °F /  8.3 °C 38.4 °F /  3.6 °C 30.30 in /  1026 hPa ENE 2.4 mph /  3.9 km/h 2.4 mph /  3.9 km/h 72 % 0.00 in /  0 mm
06:22 46.9 °F /  8.3 °C 38.7 °F /  3.7 °C 30.30 in /  1026 hPa NNW 3.5 mph /  5.6 km/h 3.5 mph /  5.6 km/h 73 % 0.00 in /  0 mm
06:27 46.9 °F /  8.3 °C 38.7 °F /  3.7 °C 30.30 in /  1026 hPa WNW 2.3 mph /  3.7 km/h 2.3 mph /  3.7 km/h 73 % 0.00 in /  0 mm
06:32 46.8 °F /  8.2 °C 38.6 °F /  3.7 °C 30.30 in /  1026 hPa NE 2.3 mph /  3.7 km/h 2.3 mph /  3.7 km/h 73 % 0.00 in /  0 mm
06:37 46.8 °F /  8.2 °C 38.6 °F /  3.7 °C 30.30 in /  1026 hPa North 2.3 mph /  3.7 km/h 2.3 mph /  3.7 km/h 73 % 0.00 in /  0 mm
06:47 46.6 °F /  8.1 °C 38.4 °F /  3.6 °C 30.33 in /  1027 hPa North 3.5 mph /  5.6 km/h 3.5 mph /  5.6 km/h 73 % 0.00 in /  0 mm
07:02 46.4 °F /  8 °C 38.2 °F /  3.4 °C 30.33 in /  1027 hPa NW 2.3 mph /  3.7 km/h   73 % 0.00 in /  0 mm
07:07 46.2 °F /  7.9 °C 38.0 °F /  3.3 °C 30.33 in /  1027 hPa North 2.3 mph /  3.7 km/h 2.3 mph /  3.7 km/h 73 % 0.00 in /  0 mm
07:17 46.6 °F /  8.1 °C 38.7 °F /  3.7 °C 30.33 in /  1027 hPa NNE 2.3 mph /  3.7 km/h 2.3 mph /  3.7 km/h 74 % 0.00 in /  0 mm
07:22 46.4 °F /  8 °C 38.6 °F /  3.7 °C 30.33 in /  1027 hPa NE 2.6 mph /  4.2 km/h 2.6 mph /  4.2 km/h 74 % 0.00 in /  0 mm
07:27 46.2 °F /  7.9 °C 38.0 °F /  3.3 °C 30.33 in /  1027 hPa West 2.3 mph /  3.7 km/h 2.3 mph /  3.7 km/h 73 % 0.00 in /  0 mm
07:32 46.0 °F /  7.8 °C 38.2 °F /  3.4 °C 30.33 in /  1027 hPa West 1.2 mph /  1.9 km/h   74 % 0.00 in /  0 mm
07:37 45.9 °F /  7.7 °C 37.7 °F /  3.2 °C 30.33 in /  1027 hPa WSW 2.4 mph /  3.9 km/h 2.4 mph /  3.9 km/h 73 % 0.00 in /  0 mm
07:42 45.3 °F /  7.4 °C 37.5 °F /  3.1 °C 30.33 in /  1027 hPa SSW 1.2 mph /  1.9 km/h   74 % 0.00 in /  0 mm
07:47 45.3 °F /  7.4 °C 37.5 °F /  3.1 °C 30.33 in /  1027 hPa ENE 2.3 mph /  3.7 km/h   74 % 0.00 in /  0 mm
07:52 45.7 °F /  7.6 °C 37.9 °F /  3.3 °C 30.33 in /  1027 hPa WNW 2.3 mph /  3.7 km/h   74 % 0.00 in /  0 mm
07:57 45.9 °F /  7.7 °C 38.4 °F /  3.6 °C 30.33 in /  1027 hPa NNE 2.3 mph /  3.7 km/h 2.3 mph /  3.7 km/h 75 % 0.00 in /  0 mm
08:02 45.9 °F /  7.7 °C 38.4 °F /  3.6 °C 30.33 in /  1027 hPa WNW 1.4 mph /  2.3 km/h 1.4 mph /  2.3 km/h 75 % 0.00 in /  0 mm
08:07 45.9 °F /  7.7 °C 38.0 °F /  3.3 °C 30.33 in /  1027 hPa WNW 2.3 mph /  3.7 km/h 2.3 mph /  3.7 km/h 74 % 0.00 in /  0 mm
08:12 45.7 °F /  7.6 °C 37.9 °F /  3.3 °C 30.33 in /  1027 hPa NNE 3.5 mph /  5.6 km/h 3.5 mph /  5.6 km/h 74 % 0.00 in /  0 mm
08:22 45.5 °F /  7.5 °C 37.7 °F /  3.2 °C 30.33 in /  1027 hPa Calm     74 % 0.00 in /  0 mm
08:27 45.9 °F /  7.7 °C 38.4 °F /  3.6 °C 30.33 in /  1027 hPa WNW 1.2 mph /  1.9 km/h   75 % 0.00 in /  0 mm
08:32 46.0 °F /  7.8 °C 38.6 °F /  3.7 °C 30.36 in /  1028 hPa WNW 1.2 mph /  1.9 km/h   75 % 0.00 in /  0 mm
08:37 46.6 °F /  8.1 °C 39.1 °F /  3.9 °C 30.36 in /  1028 hPa WNW 1.2 mph /  1.9 km/h   75 % 0.00 in /  0 mm
08:42 46.8 °F /  8.2 °C 39.3 °F /  4.1 °C 30.36 in /  1028 hPa NNE 2.3 mph /  3.7 km/h 2.3 mph /  3.7 km/h 75 % 0.00 in /  0 mm
08:47 47.3 °F /  8.5 °C 39.8 °F /  4.3 °C 30.36 in /  1028 hPa NNE 2.4 mph /  3.9 km/h 2.4 mph /  3.9 km/h 75 % 0.00 in /  0 mm
08:52 47.5 °F /  8.6 °C 39.9 °F /  4.4 °C 30.36 in /  1028 hPa NNE 2.3 mph /  3.7 km/h 2.3 mph /  3.7 km/h 75 % 0.00 in /  0 mm
08:57 47.8 °F /  8.8 °C 40.0 °F /  4.4 °C 30.36 in /  1028 hPa NNE 2.3 mph /  3.7 km/h 2.3 mph /  3.7 km/h 74 % 0.00 in /  0 mm
09:02 48.0 °F /  8.9 °C 40.1 °F /  4.5 °C 30.36 in /  1028 hPa ENE 2.3 mph /  3.7 km/h 2.3 mph /  3.7 km/h 74 % 0.00 in /  0 mm
09:07 48.2 °F /  9 °C 39.9 °F /  4.4 °C 30.36 in /  1028 hPa ENE 3.5 mph /  5.6 km/h 3.5 mph /  5.6 km/h 73 % 0.00 in /  0 mm
09:12 48.6 °F /  9.2 °C 40.3 °F /  4.6 °C 30.36 in /  1028 hPa NNE 1.4 mph /  2.3 km/h 1.4 mph /  2.3 km/h 73 % 0.00 in /  0 mm
09:17 48.7 °F /  9.3 °C 40.5 °F /  4.7 °C 30.36 in /  1028 hPa NNE 2.9 mph /  4.7 km/h 2.9 mph /  4.7 km/h 73 % 0.00 in /  0 mm
09:22 48.9 °F /  9.4 °C 40.3 °F /  4.6 °C 30.36 in /  1028 hPa NNW 2.2 mph /  3.5 km/h 2.2 mph /  3.5 km/h 72 % 0.00 in /  0 mm
09:27 49.3 °F /  9.6 °C 40.6 °F /  4.8 °C 30.36 in /  1028 hPa NNE 1.4 mph /  2.3 km/h 1.4 mph /  2.3 km/h 72 % 0.00 in /  0 mm
09:32 49.6 °F /  9.8 °C 41.0 °F /  5 °C 30.36 in /  1028 hPa NNW 2.6 mph /  4.2 km/h 2.6 mph /  4.2 km/h 72 % 0.00 in /  0 mm
09:37 50.0 °F /  10 °C 41.3 °F /  5.2 °C 30.36 in /  1028 hPa West 2.3 mph /  3.7 km/h 2.3 mph /  3.7 km/h 72 % 0.00 in /  0 mm
09:42 50.4 °F /  10.2 °C 41.3 °F /  5.2 °C 30.36 in /  1028 hPa North 2.4 mph /  3.9 km/h 2.4 mph /  3.9 km/h 71 % 0.00 in /  0 mm
09:52 50.0 °F /  10 °C 40.6 °F /  4.8 °C 30.33 in /  1027 hPa NNE 4.6 mph /  7.4 km/h 4.6 mph /  7.4 km/h 70 % 0.00 in /  0 mm
09:57 50.2 °F /  10.1 °C 40.8 °F /  4.9 °C 30.33 in /  1027 hPa North 5.8 mph /  9.3 km/h 5.8 mph /  9.3 km/h 70 % 0.00 in /  0 mm
10:07 50.7 °F /  10.4 °C 41.7 °F /  5.4 °C 30.36 in /  1028 hPa NNE 3.5 mph /  5.6 km/h 3.5 mph /  5.6 km/h 71 % 0.00 in /  0 mm
10:12 51.1 °F /  10.6 °C 41.6 °F /  5.3 °C 30.36 in /  1028 hPa NNE 2.3 mph /  3.7 km/h 2.3 mph /  3.7 km/h 70 % 0.00 in /  0 mm
10:17 51.6 °F /  10.9 °C 42.2 °F /  5.7 °C 30.36 in /  1028 hPa NNE 2.9 mph /  4.7 km/h 2.9 mph /  4.7 km/h 70 % 0.00 in /  0 mm
10:22 51.3 °F /  10.7 °C 41.4 °F /  5.2 °C 30.36 in /  1028 hPa NNE 5.8 mph /  9.3 km/h 5.8 mph /  9.3 km/h 69 % 0.00 in /  0 mm
10:27 51.1 °F /  10.6 °C 41.3 °F /  5.2 °C 30.36 in /  1028 hPa NE 5.8 mph /  9.3 km/h 5.8 mph /  9.3 km/h 69 % 0.00 in /  0 mm
10:28 51.1 °F /  10.6 °C 41.3 °F /  5.2 °C 30.36 in /  1028 hPa North 6.9 mph /  11.1 km/h 6.9 mph /  11.1 km/h 69 % 0.00 in /  0 mm
10:33 51.3 °F /  10.7 °C 41.4 °F /  5.2 °C 30.36 in /  1028 hPa East 5.8 mph /  9.3 km/h 5.8 mph /  9.3 km/h 69 % 0.00 in /  0 mm
10:38 51.4 °F /  10.8 °C 41.6 °F /  5.3 °C 30.36 in /  1028 hPa ENE 6.0 mph /  9.7 km/h 6.0 mph /  9.7 km/h 69 % 0.00 in /  0 mm
10:48 51.8 °F /  11 °C 41.6 °F /  5.3 °C 30.39 in /  1029 hPa NE 3.5 mph /  5.6 km/h 3.5 mph /  5.6 km/h 68 % 0.00 in /  0 mm
10:53 51.8 °F /  11 °C 41.6 °F /  5.3 °C 30.39 in /  1029 hPa NNE 5.8 mph /  9.3 km/h 5.8 mph /  9.3 km/h 68 % 0.00 in /  0 mm
10:58 52.0 °F /  11.1 °C 41.7 °F /  5.4 °C 30.39 in /  1029 hPa NE 5.8 mph /  9.3 km/h 5.8 mph /  9.3 km/h 68 % 0.00 in /  0 mm
11:03 52.0 °F /  11.1 °C 41.7 °F /  5.4 °C 30.39 in /  1029 hPa NE 3.1 mph /  5 km/h 3.1 mph /  5 km/h 68 % 0.00 in /  0 mm
11:08 52.0 °F /  11.1 °C 41.4 °F /  5.2 °C 30.39 in /  1029 hPa NNE 8.1 mph /  13 km/h 8.1 mph /  13 km/h 67 % 0.00 in /  0 mm
11:13 52.7 °F /  11.5 °C 42.4 °F /  5.8 °C 30.39 in /  1029 hPa ENE 3.5 mph /  5.6 km/h 3.5 mph /  5.6 km/h 68 % 0.00 in /  0 mm
11:18 53.1 °F /  11.7 °C 42.4 °F /  5.8 °C 30.39 in /  1029 hPa West 3.5 mph /  5.6 km/h 3.5 mph /  5.6 km/h 67 % 0.00 in /  0 mm
11:23 53.2 °F /  11.8 °C 42.6 °F /  5.9 °C 30.39 in /  1029 hPa NE 5.8 mph /  9.3 km/h 5.8 mph /  9.3 km/h 67 % 0.00 in /  0 mm
11:28 53.2 °F /  11.8 °C 42.2 °F /  5.7 °C 30.39 in /  1029 hPa ENE 5.8 mph /  9.3 km/h 5.8 mph /  9.3 km/h 66 % 0.00 in /  0 mm
11:33 53.4 °F /  11.9 °C 42.3 °F /  5.7 °C 30.39 in /  1029 hPa WNW 5.8 mph /  9.3 km/h 5.8 mph /  9.3 km/h 66 % 0.00 in /  0 mm
11:38 53.4 °F /  11.9 °C 42.3 °F /  5.7 °C 30.39 in /  1029 hPa North 2.6 mph /  4.2 km/h 2.6 mph /  4.2 km/h 66 % 0.00 in /  0 mm
11:53 53.6 °F /  12 °C 42.1 °F /  5.6 °C 30.39 in /  1029 hPa NW 4.6 mph /  7.4 km/h 4.6 mph /  7.4 km/h 65 % 0.00 in /  0 mm
11:58 54.1 °F /  12.3 °C 42.6 °F /  5.9 °C 30.39 in /  1029 hPa NNE 4.6 mph /  7.4 km/h 4.6 mph /  7.4 km/h 65 % 0.00 in /  0 mm
12:03 54.0 °F /  12.2 °C 42.5 °F /  5.8 °C 30.39 in /  1029 hPa NNE 5.8 mph /  9.3 km/h 5.8 mph /  9.3 km/h 65 % 0.00 in /  0 mm
12:08 54.3 °F /  12.4 °C 42.8 °F /  6 °C 30.39 in /  1029 hPa NE 3.5 mph /  5.6 km/h 3.5 mph /  5.6 km/h 65 % 0.00 in /  0 mm
12:13 54.9 °F /  12.7 °C 43.3 °F /  6.3 °C 30.39 in /  1029 hPa NE 2.6 mph /  4.2 km/h 2.6 mph /  4.2 km/h 65 % 0.00 in /  0 mm
12:18 54.9 °F /  12.7 °C 43.3 °F /  6.3 °C 30.36 in /  1028 hPa NNW 4.6 mph /  7.4 km/h 4.6 mph /  7.4 km/h 65 % 0.00 in /  0 mm
12:23 54.9 °F /  12.7 °C 42.9 °F /  6.1 °C 30.36 in /  1028 hPa NE 5.4 mph /  8.7 km/h 5.4 mph /  8.7 km/h 64 % 0.00 in /  0 mm
12:33 55.4 °F /  13 °C 43.4 °F /  6.3 °C 30.36 in /  1028 hPa NNE 4.6 mph /  7.4 km/h 4.6 mph /  7.4 km/h 64 % 0.00 in /  0 mm
12:38 55.4 °F /  13 °C 43.4 °F /  6.3 °C 30.36 in /  1028 hPa NE 4.6 mph /  7.4 km/h 4.6 mph /  7.4 km/h 64 % 0.00 in /  0 mm
12:43 55.8 °F /  13.2 °C 43.3 °F /  6.3 °C 30.36 in /  1028 hPa NNE 6.9 mph /  11.1 km/h 6.9 mph /  11.1 km/h 63 % 0.00 in /  0 mm
12:48 56.1 °F /  13.4 °C 44.1 °F /  6.7 °C 30.36 in /  1028 hPa NNE 5.8 mph /  9.3 km/h 5.8 mph /  9.3 km/h 64 % 0.00 in /  0 mm
12:53 56.8 °F /  13.8 °C 44.4 °F /  6.9 °C 30.36 in /  1028 hPa NE 5.8 mph /  9.3 km/h 5.8 mph /  9.3 km/h 63 % 0.00 in /  0 mm
12:58 56.7 °F /  13.7 °C 43.8 °F /  6.6 °C 30.36 in /  1028 hPa NNE 5.8 mph /  9.3 km/h 6.0 mph /  9.7 km/h 62 % 0.00 in /  0 mm
13:03 56.8 °F /  13.8 °C 44.4 °F /  6.9 °C 30.33 in /  1027 hPa ENE 3.5 mph /  5.6 km/h 3.5 mph /  5.6 km/h 63 % 0.00 in /  0 mm
13:08 57.2 °F /  14 °C 44.3 °F /  6.8 °C 30.33 in /  1027 hPa NNE 5.8 mph /  9.3 km/h 5.8 mph /  9.3 km/h 62 % 0.00 in /  0 mm
13:13 57.6 °F /  14.2 °C 44.6 °F /  7 °C 30.33 in /  1027 hPa ENE 5.8 mph /  9.3 km/h 5.8 mph /  9.3 km/h 62 % 0.00 in /  0 mm
13:23 59.2 °F /  15.1 °C 46.2 °F /  7.9 °C 30.33 in /  1027 hPa NE 4.6 mph /  7.4 km/h 4.6 mph /  7.4 km/h 62 % 0.00 in /  0 mm
13:28 60.4 °F /  15.8 °C 46.9 °F /  8.3 °C 30.33 in /  1027 hPa WNW 2.9 mph /  4.7 km/h 2.9 mph /  4.7 km/h 61 % 0.00 in /  0 mm
13:33 60.8 °F /  16 °C 46.8 °F /  8.2 °C 30.33 in /  1027 hPa SW 3.5 mph /  5.6 km/h 3.5 mph /  5.6 km/h 60 % 0.00 in /  0 mm
13:38 61.2 °F /  16.2 °C 47.2 °F /  8.4 °C 30.33 in /  1027 hPa West 5.8 mph /  9.3 km/h 5.8 mph /  9.3 km/h 60 % 0.00 in /  0 mm
13:43 61.3 °F /  16.3 °C 46.9 °F /  8.3 °C 30.33 in /  1027 hPa WNW 5.8 mph /  9.3 km/h 5.8 mph /  9.3 km/h 59 % 0.00 in /  0 mm
13:53 62.4 °F /  16.9 °C 47.4 °F /  8.6 °C 30.33 in /  1027 hPa WSW 9.2 mph /  14.8 km/h 9.2 mph /  14.8 km/h 58 % 0.00 in /  0 mm
14:03 62.4 °F /  16.9 °C 47.0 °F /  8.3 °C 30.33 in /  1027 hPa WNW 3.5 mph /  5.6 km/h 3.5 mph /  5.6 km/h 57 % 0.00 in /  0 mm
14:08 62.4 °F /  16.9 °C 47.0 °F /  8.3 °C 30.33 in /  1027 hPa SW 2.9 mph /  4.7 km/h 2.9 mph /  4.7 km/h 57 % 0.00 in /  0 mm
14:13 62.8 °F /  17.1 °C 46.8 °F /  8.2 °C 30.33 in /  1027 hPa SW 3.5 mph /  5.6 km/h 3.5 mph /  5.6 km/h 56 % 0.00 in /  0 mm
14:18 62.8 °F /  17.1 °C 46.4 °F /  8 °C 30.33 in /  1027 hPa ESE 3.8 mph /  6.1 km/h 3.8 mph /  6.1 km/h 55 % 0.00 in /  0 mm
14:28 62.4 °F /  16.9 °C 46.5 °F /  8.1 °C 30.33 in /  1027 hPa NNE 8.1 mph /  13 km/h 8.1 mph /  13 km/h 56 % 0.00 in /  0 mm
14:33 61.9 °F /  16.6 °C 45.5 °F /  7.5 °C 30.33 in /  1027 hPa NNE 3.5 mph /  5.6 km/h 3.5 mph /  5.6 km/h 55 % 0.00 in /  0 mm
14:38 61.9 °F /  16.6 °C 46.0 °F /  7.8 °C 30.33 in /  1027 hPa ENE 2.3 mph /  3.7 km/h 2.3 mph /  3.7 km/h 56 % 0.00 in /  0 mm
14:43 62.4 °F /  16.9 °C 46.5 °F /  8.1 °C 30.33 in /  1027 hPa NE 2.3 mph /  3.7 km/h 2.3 mph /  3.7 km/h 56 % 0.00 in /  0 mm
14:48 62.6 °F /  17 °C 46.2 °F /  7.9 °C 30.33 in /  1027 hPa NE 3.5 mph /  5.6 km/h 3.5 mph /  5.6 km/h 55 % 0.00 in /  0 mm
14:53 61.9 °F /  16.6 °C 45.5 °F /  7.5 °C 30.33 in /  1027 hPa WSW 4.6 mph /  7.4 km/h 4.6 mph /  7.4 km/h 55 % 0.00 in /  0 mm
14:58 61.9 °F /  16.6 °C 45.5 °F /  7.5 °C 30.33 in /  1027 hPa NE 2.3 mph /  3.7 km/h 2.3 mph /  3.7 km/h 55 % 0.00 in /  0 mm
15:13 61.3 °F /  16.3 °C 45.5 °F /  7.5 °C 30.33 in /  1027 hPa NNE 5.4 mph /  8.7 km/h 5.4 mph /  8.7 km/h 56 % 0.00 in /  0 mm
15:18 61.0 °F /  16.1 °C 45.2 °F /  7.3 °C 30.33 in /  1027 hPa East 5.8 mph /  9.3 km/h 5.8 mph /  9.3 km/h 56 % 0.00 in /  0 mm
15:28 60.6 °F /  15.9 °C 44.8 °F /  7.1 °C 30.33 in /  1027 hPa NE 3.3 mph /  5.3 km/h 3.3 mph /  5.3 km/h 56 % 0.00 in /  0 mm
15:33 60.6 °F /  15.9 °C 44.8 °F /  7.1 °C 30.33 in /  1027 hPa North 3.5 mph /  5.6 km/h 3.5 mph /  5.6 km/h 56 % 0.00 in /  0 mm
15:38 60.4 °F /  15.8 °C 44.7 °F /  7.1 °C 30.33 in /  1027 hPa NNE 4.6 mph /  7.4 km/h 4.6 mph /  7.4 km/h 56 % 0.00 in /  0 mm
15:43 60.3 °F /  15.7 °C 44.5 °F /  6.9 °C 30.33 in /  1027 hPa NE 2.6 mph /  4.2 km/h 2.6 mph /  4.2 km/h 56 % 0.00 in /  0 mm
15:48 60.4 °F /  15.8 °C 44.7 °F /  7.1 °C 30.36 in /  1028 hPa NNE 3.5 mph /  5.6 km/h 3.5 mph /  5.6 km/h 56 % 0.00 in /  0 mm
15:53 60.6 °F /  15.9 °C 44.8 °F /  7.1 °C 30.36 in /  1028 hPa North 4.6 mph /  7.4 km/h 4.6 mph /  7.4 km/h 56 % 0.00 in /  0 mm
15:58 60.4 °F /  15.8 °C 44.7 °F /  7.1 °C 30.36 in /  1028 hPa NNE 4.0 mph /  6.4 km/h 4.0 mph /  6.4 km/h 56 % 0.00 in /  0 mm
16:03 60.3 °F /  15.7 °C 44.5 °F /  6.9 °C 30.33 in /  1027 hPa NNW 3.5 mph /  5.6 km/h 3.5 mph /  5.6 km/h 56 % 0.00 in /  0 mm
16:13 60.1 °F /  15.6 °C 44.8 °F /  7.1 °C 30.33 in /  1027 hPa ENE 3.6 mph /  5.8 km/h 3.6 mph /  5.8 km/h 57 % 0.00 in /  0 mm
16:18 59.9 °F /  15.5 °C 44.6 °F /  7 °C 30.36 in /  1028 hPa NNE 6.9 mph /  11.1 km/h 6.9 mph /  11.1 km/h 57 % 0.00 in /  0 mm
16:23 59.9 °F /  15.5 °C 44.6 °F /  7 °C 30.36 in /  1028 hPa NNE 4.6 mph /  7.4 km/h 4.6 mph /  7.4 km/h 57 % 0.00 in /  0 mm
16:28 59.5 °F /  15.3 °C 44.3 °F /  6.8 °C 30.36 in /  1028 hPa NE 4.6 mph /  7.4 km/h 4.6 mph /  7.4 km/h 57 % 0.00 in /  0 mm
16:33 59.5 °F /  15.3 °C 44.3 °F /  6.8 °C 30.36 in /  1028 hPa North 3.5 mph /  5.6 km/h 3.5 mph /  5.6 km/h 57 % 0.00 in /  0 mm
16:38 59.4 °F /  15.2 °C 44.1 °F /  6.7 °C 30.36 in /  1028 hPa NNE 2.3 mph /  3.7 km/h 2.3 mph /  3.7 km/h 57 % 0.00 in /  0 mm
16:43 59.5 °F /  15.3 °C 44.7 °F /  7.1 °C 30.36 in /  1028 hPa ENE 2.3 mph /  3.7 km/h 2.3 mph /  3.7 km/h 58 % 0.00 in /  0 mm
16:48 59.4 °F /  15.2 °C 44.6 °F /  7 °C 30.36 in /  1028 hPa North 3.5 mph /  5.6 km/h 3.5 mph /  5.6 km/h 58 % 0.00 in /  0 mm
16:53 59.4 °F /  15.2 °C 44.6 °F /  7 °C 30.36 in /  1028 hPa NNW 1.6 mph /  2.6 km/h   58 % 0.00 in /  0 mm
16:58 59.2 °F /  15.1 °C 44.4 °F /  6.9 °C 30.36 in /  1028 hPa ENE 2.3 mph /  3.7 km/h 2.3 mph /  3.7 km/h 58 % 0.00 in /  0 mm
17:03 59.0 °F /  15 °C 44.2 °F /  6.8 °C 30.33 in /  1027 hPa NE 3.5 mph /  5.6 km/h 3.5 mph /  5.6 km/h 58 % 0.00 in /  0 mm
17:08 58.8 °F /  14.9 °C 44.1 °F /  6.7 °C 30.33 in /  1027 hPa NNE 2.4 mph /  3.9 km/h 2.4 mph /  3.9 km/h 58 % 0.00 in /  0 mm
17:13 58.6 °F /  14.8 °C 43.9 °F /  6.6 °C 30.33 in /  1027 hPa ENE 3.5 mph /  5.6 km/h 3.5 mph /  5.6 km/h 58 % 0.00 in /  0 mm
17:18 58.3 °F /  14.6 °C 44.0 °F /  6.7 °C 30.36 in /  1028 hPa NNE 3.5 mph /  5.6 km/h 3.5 mph /  5.6 km/h 59 % 0.00 in /  0 mm
17:23 58.1 °F /  14.5 °C 43.8 °F /  6.6 °C 30.36 in /  1028 hPa NNW 3.1 mph /  5 km/h 3.1 mph /  5 km/h 59 % 0.00 in /  0 mm
17:28 57.7 °F /  14.3 °C 43.5 °F /  6.4 °C 30.36 in /  1028 hPa NNE 2.3 mph /  3.7 km/h 2.3 mph /  3.7 km/h 59 % 0.00 in /  0 mm
17:33 57.4 °F /  14.1 °C 43.6 °F /  6.4 °C 30.36 in /  1028 hPa NNE 2.3 mph /  3.7 km/h 2.3 mph /  3.7 km/h 60 % 0.00 in /  0 mm
17:38 57.2 °F /  14 °C 43.4 °F /  6.3 °C 30.36 in /  1028 hPa ENE 3.5 mph /  5.6 km/h 3.5 mph /  5.6 km/h 60 % 0.00 in /  0 mm
17:43 56.8 °F /  13.8 °C 43.1 °F /  6.2 °C 30.36 in /  1028 hPa NNE 2.9 mph /  4.7 km/h 2.9 mph /  4.7 km/h 60 % 0.00 in /  0 mm
17:48 56.7 °F /  13.7 °C 43.4 °F /  6.3 °C 30.36 in /  1028 hPa NNE 2.3 mph /  3.7 km/h 2.3 mph /  3.7 km/h 61 % 0.00 in /  0 mm
17:53 56.3 °F /  13.5 °C 43.0 °F /  6.1 °C 30.36 in /  1028 hPa Calm     61 % 0.00 in /  0 mm
17:58 56.3 °F /  13.5 °C 43.0 °F /  6.1 °C 30.36 in /  1028 hPa WNW 2.3 mph /  3.7 km/h 2.3 mph /  3.7 km/h 61 % 0.00 in /  0 mm
18:03 56.1 °F /  13.4 °C 42.8 °F /  6 °C 30.39 in /  1029 hPa West 2.3 mph /  3.7 km/h 2.3 mph /  3.7 km/h 61 % 0.00 in /  0 mm
18:08 55.8 °F /  13.2 °C 42.9 °F /  6.1 °C 30.39 in /  1029 hPa WNW 1.2 mph /  1.9 km/h   62 % 0.00 in /  0 mm
18:13 55.6 °F /  13.1 °C 42.8 °F /  6 °C 30.39 in /  1029 hPa Calm     62 % 0.00 in /  0 mm
18:18 55.4 °F /  13 °C 42.6 °F /  5.9 °C 30.39 in /  1029 hPa NW 3.5 mph /  5.6 km/h 3.5 mph /  5.6 km/h 62 % 0.00 in /  0 mm
18:23 55.2 °F /  12.9 °C 42.4 °F /  5.8 °C 30.39 in /  1029 hPa ENE 1.4 mph /  2.3 km/h   62 % 0.00 in /  0 mm
18:28 55.0 °F /  12.8 °C 42.7 °F /  5.9 °C 30.39 in /  1029 hPa Calm     63 % 0.00 in /  0 mm
18:33 55.0 °F /  12.8 °C 42.3 °F /  5.7 °C 30.42 in /  1030 hPa WNW 1.6 mph /  2.6 km/h 1.6 mph /  2.6 km/h 62 % 0.00 in /  0 mm
18:38 54.7 °F /  12.6 °C 42.3 °F /  5.7 °C 30.42 in /  1030 hPa WNW 2.3 mph /  3.7 km/h 2.3 mph /  3.7 km/h 63 % 0.00 in /  0 mm
18:43 54.7 °F /  12.6 °C 42.3 °F /  5.7 °C 30.42 in /  1030 hPa West 2.3 mph /  3.7 km/h 2.3 mph /  3.7 km/h 63 % 0.00 in /  0 mm
18:48 54.5 °F /  12.5 °C 42.2 °F /  5.7 °C 30.42 in /  1030 hPa West 1.4 mph /  2.3 km/h 1.4 mph /  2.3 km/h 63 % 0.00 in /  0 mm
18:53 54.3 °F /  12.4 °C 42.4 °F /  5.8 °C 30.42 in /  1030 hPa Calm     64 % 0.00 in /  0 mm
18:58 54.1 °F /  12.3 °C 42.2 °F /  5.7 °C 30.42 in /  1030 hPa West 1.2 mph /  1.9 km/h   64 % 0.00 in /  0 mm
19:08 54.1 °F /  12.3 °C 42.2 °F /  5.7 °C 30.42 in /  1030 hPa Calm     64 % 0.00 in /  0 mm
19:13 54.1 °F /  12.3 °C 42.2 °F /  5.7 °C 30.42 in /  1030 hPa West 2.3 mph /  3.7 km/h 2.3 mph /  3.7 km/h 64 % 0.00 in /  0 mm
19:18 53.8 °F /  12.1 °C 41.9 °F /  5.5 °C 30.42 in /  1030 hPa Calm     64 % 0.00 in /  0 mm
19:28 53.8 °F /  12.1 °C 42.3 °F /  5.7 °C 30.42 in /  1030 hPa Calm     65 % 0.00 in /  0 mm
19:33 53.8 °F /  12.1 °C 42.3 °F /  5.7 °C 30.42 in /  1030 hPa Calm     65 % 0.00 in /  0 mm
19:38 53.8 °F /  12.1 °C 42.3 °F /  5.7 °C 30.42 in /  1030 hPa Calm     65 % 0.00 in /  0 mm
19:43 53.8 °F /  12.1 °C 42.3 °F /  5.7 °C 30.42 in /  1030 hPa SW 2.4 mph /  3.9 km/h   65 % 0.00 in /  0 mm
19:48 52.3 °F /  11.3 °C 40.9 °F /  4.9 °C 30.42 in /  1030 hPa SW 2.3 mph /  3.7 km/h 2.3 mph /  3.7 km/h 65 % 0.00 in /  0 mm
19:53 52.0 °F /  11.1 °C 40.6 °F /  4.8 °C 30.42 in /  1030 hPa Calm     65 % 0.00 in /  0 mm
19:58 52.2 °F /  11.2 °C 41.1 °F /  5.1 °C 30.42 in /  1030 hPa SW 1.2 mph /  1.9 km/h 1.2 mph /  1.9 km/h 66 % 0.00 in /  0 mm
20:03 52.2 °F /  11.2 °C 41.1 °F /  5.1 °C 30.42 in /  1030 hPa Calm     66 % 0.00 in /  0 mm
20:08 52.2 °F /  11.2 °C 41.5 °F /  5.3 °C 30.42 in /  1030 hPa Calm     67 % 0.00 in /  0 mm
20:13 52.3 °F /  11.3 °C 41.3 °F /  5.2 °C 30.42 in /  1030 hPa WSW 1.2 mph /  1.9 km/h 1.2 mph /  1.9 km/h 66 % 0.00 in /  0 mm
20:18 52.3 °F /  11.3 °C 41.3 °F /  5.2 °C 30.42 in /  1030 hPa West 2.3 mph /  3.7 km/h 2.3 mph /  3.7 km/h 66 % 0.00 in /  0 mm
20:23 52.5 °F /  11.4 °C 41.5 °F /  5.3 °C 30.42 in /  1030 hPa West 2.3 mph /  3.7 km/h 2.3 mph /  3.7 km/h 66 % 0.00 in /  0 mm
20:28 52.5 °F /  11.4 °C 41.9 °F /  5.5 °C 30.42 in /  1030 hPa West 2.3 mph /  3.7 km/h 2.3 mph /  3.7 km/h 67 % 0.00 in /  0 mm
20:38 52.3 °F /  11.3 °C 41.7 °F /  5.4 °C 30.42 in /  1030 hPa WSW 1.2 mph /  1.9 km/h 1.2 mph /  1.9 km/h 67 % 0.00 in /  0 mm
20:43 52.3 °F /  11.3 °C 41.7 °F /  5.4 °C 30.42 in /  1030 hPa Calm     67 % 0.00 in /  0 mm
20:48 52.3 °F /  11.3 °C 41.7 °F /  5.4 °C 30.42 in /  1030 hPa West 2.3 mph /  3.7 km/h 2.3 mph /  3.7 km/h 67 % 0.00 in /  0 mm
20:53 52.3 °F /  11.3 °C 41.7 °F /  5.4 °C 30.42 in /  1030 hPa WSW 2.4 mph /  3.9 km/h 2.4 mph /  3.9 km/h 67 % 0.00 in /  0 mm
20:58 52.2 °F /  11.2 °C 41.5 °F /  5.3 °C 30.42 in /  1030 hPa West 2.3 mph /  3.7 km/h 2.6 mph /  4.2 km/h 67 % 0.00 in /  0 mm
21:03 52.2 °F /  11.2 °C 41.5 °F /  5.3 °C 30.42 in /  1030 hPa SW 2.3 mph /  3.7 km/h 2.3 mph /  3.7 km/h 67 % 0.00 in /  0 mm
21:05 44.6 °F /  7 °C 38.5 °F /  3.6 °C 30.42 in /  1030 hPa Calm   1.0 mph /  1.6 km/h 79 % 0.00 in /  0 mm
21:08 52.0 °F /  11.1 °C 41.4 °F /  5.2 °C 30.42 in /  1030 hPa WSW 2.4 mph /  3.9 km/h 2.4 mph /  3.9 km/h 67 % 0.00 in /  0 mm
21:13 52.2 °F /  11.2 °C 41.5 °F /  5.3 °C 30.42 in /  1030 hPa West 2.6 mph /  4.2 km/h 2.6 mph /  4.2 km/h 67 % 0.00 in /  0 mm
21:23 51.8 °F /  11 °C 41.6 °F /  5.3 °C 30.42 in /  1030 hPa West 2.3 mph /  3.7 km/h 2.3 mph /  3.7 km/h 68 % 0.00 in /  0 mm
21:28 51.4 °F /  10.8 °C 41.2 °F /  5.1 °C 30.42 in /  1030 hPa WSW 2.6 mph /  4.2 km/h 2.6 mph /  4.2 km/h 68 % 0.00 in /  0 mm
21:33 51.3 °F /  10.7 °C 41.1 °F /  5.1 °C 30.42 in /  1030 hPa West 2.3 mph /  3.7 km/h 2.3 mph /  3.7 km/h 68 % 0.00 in /  0 mm
21:35 44.2 °F /  6.8 °C 38.1 °F /  3.4 °C 30.42 in /  1030 hPa West 1.0 mph /  1.6 km/h 1.0 mph /  1.6 km/h 79 % 0.00 in /  0 mm
21:38 51.1 °F /  10.6 °C 40.9 °F /  4.9 °C 30.42 in /  1030 hPa WSW 2.6 mph /  4.2 km/h 2.6 mph /  4.2 km/h 68 % 0.00 in /  0 mm
21:43 51.1 °F /  10.6 °C 40.9 °F /  4.9 °C 30.42 in /  1030 hPa West 2.3 mph /  3.7 km/h 2.3 mph /  3.7 km/h 68 % 0.00 in /  0 mm
21:45 44.2 °F /  6.8 °C 38.1 °F /  3.4 °C 30.42 in /  1030 hPa Calm   1.0 mph /  1.6 km/h 79 % 0.00 in /  0 mm
21:48 51.1 °F /  10.6 °C 41.3 °F /  5.2 °C 30.42 in /  1030 hPa SW 2.3 mph /  3.7 km/h 2.3 mph /  3.7 km/h 69 % 0.00 in /  0 mm
21:53 50.9 °F /  10.5 °C 41.1 °F /  5.1 °C 30.42 in /  1030 hPa SW 1.2 mph /  1.9 km/h   69 % 0.00 in /  0 mm
21:55 44.2 °F /  6.8 °C 38.5 °F /  3.6 °C 30.42 in /  1030 hPa Calm     80 % 0.00 in /  0 mm
21:58 50.7 °F /  10.4 °C 41.3 °F /  5.2 °C 30.42 in /  1030 hPa SW 1.2 mph /  1.9 km/h 1.2 mph /  1.9 km/h 70 % 0.00 in /  0 mm
22:03 50.7 °F /  10.4 °C 41.3 °F /  5.2 °C 30.44 in /  1030.7 hPa WSW 1.2 mph /  1.9 km/h 1.2 mph /  1.9 km/h 70 % 0.00 in /  0 mm
22:05 43.9 °F /  6.6 °C 37.8 °F /  3.2 °C 30.42 in /  1030 hPa Calm     79 % 0.00 in /  0 mm
22:08 50.5 °F /  10.3 °C 41.1 °F /  5.1 °C 30.44 in /  1030.7 hPa WSW 1.4 mph /  2.3 km/h 1.4 mph /  2.3 km/h 70 % 0.00 in /  0 mm
22:13 50.5 °F /  10.3 °C 41.1 °F /  5.1 °C 30.44 in /  1030.7 hPa NE 2.4 mph /  3.9 km/h   70 % 0.00 in /  0 mm
22:15 43.7 °F /  6.5 °C 37.6 °F /  3.1 °C 30.42 in /  1030 hPa NW 1.0 mph /  1.6 km/h 1.0 mph /  1.6 km/h 79 % 0.00 in /  0 mm
22:23 49.1 °F /  9.5 °C 39.7 °F /  4.3 °C 30.44 in /  1030.7 hPa NNE 2.4 mph /  3.9 km/h 2.4 mph /  3.9 km/h 70 % 0.00 in /  0 mm
22:25 43.5 °F /  6.4 °C 37.4 °F /  3 °C 30.39 in /  1029 hPa Calm   2.0 mph /  3.2 km/h 79 % 0.00 in /  0 mm
22:33 49.3 °F /  9.6 °C 39.9 °F /  4.4 °C 30.44 in /  1030.7 hPa WNW 2.3 mph /  3.7 km/h 2.3 mph /  3.7 km/h 70 % 0.00 in /  0 mm
22:35 43.5 °F /  6.4 °C 37.4 °F /  3 °C 30.39 in /  1029 hPa Calm     79 % 0.00 in /  0 mm
22:38 49.3 °F /  9.6 °C 40.3 °F /  4.6 °C 30.44 in /  1030.7 hPa Calm     71 % 0.00 in /  0 mm
22:43 48.9 °F /  9.4 °C 39.9 °F /  4.4 °C 30.44 in /  1030.7 hPa Calm     71 % 0.00 in /  0 mm
22:48 48.7 °F /  9.3 °C 39.8 °F /  4.3 °C 30.44 in /  1030.7 hPa Calm     71 % 0.00 in /  0 mm
22:53 48.6 °F /  9.2 °C 39.9 °F /  4.4 °C 30.44 in /  1030.7 hPa West 1.2 mph /  1.9 km/h   72 % 0.00 in /  0 mm
22:55 43.7 °F /  6.5 °C 37.9 °F /  3.3 °C 30.39 in /  1029 hPa NW 1.0 mph /  1.6 km/h 1.0 mph /  1.6 km/h 80 % 0.00 in /  0 mm
22:58 48.4 °F /  9.1 °C 39.8 °F /  4.3 °C 30.44 in /  1030.7 hPa Calm     72 % 0.00 in /  0 mm
23:08 47.8 °F /  8.8 °C 39.2 °F /  4 °C 30.42 in /  1030 hPa West 1.6 mph /  2.6 km/h 1.6 mph /  2.6 km/h 72 % 0.00 in /  0 mm
23:15 43.7 °F /  6.5 °C 37.9 °F /  3.3 °C 30.39 in /  1029 hPa Calm     80 % 0.00 in /  0 mm
23:18 47.8 °F /  8.8 °C 39.6 °F /  4.2 °C 30.44 in /  1030.7 hPa Calm     73 % 0.00 in /  0 mm
23:23 47.7 °F /  8.7 °C 39.8 °F /  4.3 °C 30.44 in /  1030.7 hPa Calm     74 % 0.00 in /  0 mm
23:25 43.2 °F /  6.2 °C 37.4 °F /  3 °C 30.39 in /  1029 hPa Calm   1.0 mph /  1.6 km/h 80 % 0.00 in /  0 mm
23:28 47.7 °F /  8.7 °C 39.8 °F /  4.3 °C 30.44 in /  1030.7 hPa Calm     74 % 0.00 in /  0 mm
23:33 47.5 °F /  8.6 °C 39.6 °F /  4.2 °C 30.44 in /  1030.7 hPa Calm     74 % 0.00 in /  0 mm
23:35 43.0 °F /  6.1 °C 37.2 °F /  2.9 °C 30.39 in /  1029 hPa Calm   1.0 mph /  1.6 km/h 80 % 0.00 in /  0 mm
23:38 47.5 °F /  8.6 °C 39.6 °F /  4.2 °C 30.44 in /  1030.7 hPa Calm     74 % 0.00 in /  0 mm
23:43 47.3 °F /  8.5 °C 39.4 °F /  4.1 °C 30.44 in /  1030.7 hPa West 1.2 mph /  1.9 km/h 1.4 mph /  2.3 km/h 74 % 0.00 in /  0 mm
23:45 42.8 °F /  6 °C 37.1 °F /  2.8 °C 30.39 in /  1029 hPa West 1.0 mph /  1.6 km/h 2.0 mph /  3.2 km/h 80 % 0.00 in /  0 mm
23:48 47.1 °F /  8.4 °C 39.3 °F /  4.1 °C 30.44 in /  1030.7 hPa West 1.4 mph /  2.3 km/h 1.4 mph /  2.3 km/h 74 % 0.00 in /  0 mm
23:53 46.9 °F /  8.3 °C 39.1 °F /  3.9 °C 30.44 in /  1030.7 hPa West 2.3 mph /  3.7 km/h 2.3 mph /  3.7 km/h 74 % 0.00 in /  0 mm
23:55 43.0 °F /  6.1 °C 37.2 °F /  2.9 °C 30.39 in /  1029 hPa West 1.0 mph /  1.6 km/h 2.0 mph /  3.2 km/h 80 % 0.00 in /  0 mm
Meteo Sesrovires
Elogis d' Weather Underground - 1.75 mb

Guio original per  Jim McMurry - jmcmurry@mwt.net Adaptat per a la plantilla per  Wim van der Kuil - Leuven-Template.eu

Trobareu la nostra informacio del temps tambe a:

Weather Underground

AWEKAS